Time;durP1;ratioP1;P1;durP2;ratioP2;P2;SDS_P1;SDS_P2;PMS_P1;PMS_P2;Temp;Humidity;BMP_temperature;BMP_pressure;BME280_temperature;BME280_humidity;BME280_pressure;Samples;Min_cycle;Max_cycle;Signal;HPM_P1;HPM_P2
2023/10/19 00:00:45;;;;;;;15.68;12.40;;;;;;;;;;6283576;22;19995;-68
2023/10/19 00:03:13;;;;;;;15.23;11.40;;;;;;;;;;6281351;22;20007;-68
2023/10/19 00:05:44;;;;;;;15.98;11.93;;;;;;;;;;6283617;22;20031;-68
2023/10/19 00:10:39;;;;;;;14.80;10.85;;;;;;;;;;6283155;22;20004;-68
2023/10/19 00:13:05;;;;;;;13.35;10.93;;;;;;;;;;6280926;22;19999;-69
2023/10/19 00:15:35;;;;;;;16.38;11.20;;;;;;;;;;6282655;22;20687;-69
2023/10/19 00:18:08;;;;;;;13.52;10.20;;;;;;;;;;6255162;22;20007;-69
2023/10/19 00:23:18;;;;;;;14.43;10.55;;;;;;;;;;6295419;22;20547;-68
2023/10/19 00:25:44;;;;;;;13.98;11.00;;;;;;;;;;6250343;22;20793;-69
2023/10/19 00:28:12;;;;;;;14.35;11.00;;;;;;;;;;6283773;22;20105;-67
2023/10/19 00:30:37;;;;;;;12.85;10.90;;;;;;;;;;6280447;22;20002;-67
2023/10/19 00:33:15;;;;;;;15.13;11.10;;;;;;;;;;6255759;22;20003;-67
2023/10/19 00:36:23;;;;;;;12.77;9.65;;;;;;;;;;6282616;22;20218;-67
2023/10/19 00:41:43;;;;;;;14.27;9.77;;;;;;;;;;6292077;22;19999;-67
2023/10/19 00:43:57;;;;;;;13.65;10.10;;;;;;;;;;6260150;22;20003;-67
2023/10/19 00:46:26;;;;;;;11.38;9.30;;;;;;;;;;6280476;22;20068;-67
2023/10/19 00:48:58;;;;;;;11.70;9.45;;;;;;;;;;6254055;22;20098;-67
2023/10/19 00:53:59;;;;;;;12.95;9.55;;;;;;;;;;6285908;22;20010;-67
2023/10/19 00:56:31;;;;;;;14.53;10.53;;;;;;;;;;6284073;22;19996;-67
2023/10/19 00:59:14;;;;;;;12.88;9.85;;;;;;;;;;6282733;22;20007;-67
2023/10/19 01:01:48;;;;;;;14.23;10.35;;;;;;;;;;6256722;22;20006;-66
2023/10/19 01:04:23;;;;;;;13.50;9.93;;;;;;;;;;6284213;22;19995;-67
2023/10/19 01:09:36;;;;;;;14.05;10.40;;;;;;;;;;6283997;22;20443;-67
2023/10/19 01:12:21;;;;;;;14.07;10.13;;;;;;;;;;6256900;22;19999;-67
2023/10/19 01:15:00;;;;;;;14.27;9.68;;;;;;;;;;6283901;22;20007;-67
2023/10/19 01:17:31;;;;;;;12.60;9.37;;;;;;;;;;6256112;22;20090;-67
2023/10/19 01:19:58;;;;;;;13.43;10.20;;;;;;;;;;6258417;22;20088;-65
2023/10/19 01:22:26;;;;;;;15.18;10.00;;;;;;;;;;6254019;22;20026;-67
2023/10/19 01:24:55;;;;;;;12.63;9.68;;;;;;;;;;6284640;22;20048;-67
2023/10/19 01:27:23;;;;;;;12.40;9.47;;;;;;;;;;6254908;22;19999;-67
2023/10/19 01:29:51;;;;;;;12.55;8.70;;;;;;;;;;6256216;22;20003;-67
2023/10/19 01:32:17;;;;;;;12.63;8.73;;;;;;;;;;6284519;22;20050;-67
2023/10/19 01:34:43;;;;;;;11.47;8.73;;;;;;;;;;6284000;22;20412;-67
2023/10/19 01:37:12;;;;;;;13.20;9.43;;;;;;;;;;6282080;22;20273;-67
2023/10/19 01:39:38;;;;;;;10.73;8.48;;;;;;;;;;6278003;22;20047;-67
2023/10/19 01:42:04;;;;;;;10.52;8.27;;;;;;;;;;6257670;22;20003;-68
2023/10/19 01:44:30;;;;;;;11.13;8.73;;;;;;;;;;6254635;22;20584;-69
2023/10/19 01:46:55;;;;;;;11.75;8.25;;;;;;;;;;6283967;22;20019;-68
2023/10/19 01:49:28;;;;;;;11.57;8.38;;;;;;;;;;6256721;22;20080;-69
2023/10/19 01:51:54;;;;;;;11.82;8.32;;;;;;;;;;6257635;22;20078;-68
2023/10/19 01:54:23;;;;;;;11.52;8.82;;;;;;;;;;6257422;22;20003;-69
2023/10/19 01:56:54;;;;;;;11.57;8.75;;;;;;;;;;6284274;22;20006;-68
2023/10/19 01:59:19;;;;;;;12.23;8.57;;;;;;;;;;6283457;22;20249;-68
2023/10/19 02:01:46;;;;;;;9.98;8.00;;;;;;;;;;6283970;22;20520;-68
2023/10/19 02:04:13;;;;;;;13.10;8.00;;;;;;;;;;6283406;22;20101;-68
2023/10/19 02:06:40;;;;;;;10.35;8.02;;;;;;;;;;6258152;22;20148;-68
2023/10/19 02:09:22;;;;;;;10.02;7.75;;;;;;;;;;6255967;22;20014;-68
2023/10/19 02:11:58;;;;;;;11.02;8.00;;;;;;;;;;6254923;22;19996;-66
2023/10/19 02:14:28;;;;;;;9.93;8.02;;;;;;;;;;6285234;22;20007;-68
2023/10/19 02:16:59;;;;;;;11.27;7.90;;;;;;;;;;6281578;22;19999;-68
2023/10/19 02:19:25;;;;;;;11.65;8.27;;;;;;;;;;6284602;22;20003;-69
2023/10/19 02:21:52;;;;;;;11.63;8.35;;;;;;;;;;6256300;22;20003;-66
2023/10/19 02:24:17;;;;;;;12.02;8.68;;;;;;;;;;6284568;22;20039;-66
2023/10/19 02:26:43;;;;;;;11.73;9.25;;;;;;;;;;6283362;22;20155;-69
2023/10/19 02:29:09;;;;;;;10.88;8.73;;;;;;;;;;6283115;22;20522;-66
2023/10/19 02:31:37;;;;;;;12.77;9.38;;;;;;;;;;6284656;22;20003;-69
2023/10/19 02:34:04;;;;;;;11.27;9.00;;;;;;;;;;6254316;22;20006;-69
2023/10/19 02:36:30;;;;;;;13.63;8.93;;;;;;;;;;6283741;22;19999;-67
2023/10/19 02:38:58;;;;;;;11.85;9.57;;;;;;;;;;6283604;22;20452;-67
2023/10/19 02:41:24;;;;;;;13.70;9.40;;;;;;;;;;6282822;22;20029;-69
2023/10/19 02:44:01;;;;;;;11.35;9.65;;;;;;;;;;6282718;22;20420;-68
2023/10/19 02:46:29;;;;;;;11.85;9.20;;;;;;;;;;6254969;22;20008;-67
2023/10/19 02:49:00;;;;;;;13.52;10.50;;;;;;;;;;6257041;22;20000;-69
2023/10/19 02:51:28;;;;;;;12.38;9.80;;;;;;;;;;6284213;22;20018;-70
2023/10/19 02:53:53;;;;;;;12.98;9.88;;;;;;;;;;6284116;22;19996;-69
2023/10/19 02:56:19;;;;;;;13.32;10.18;;;;;;;;;;6283982;22;20003;-69
2023/10/19 02:58:49;;;;;;;13.60;11.13;;;;;;;;;;6281276;22;20014;-69
2023/10/19 03:01:21;;;;;;;13.32;10.82;;;;;;;;;;6282729;22;20133;-68
2023/10/19 03:03:48;;;;;;;15.52;11.18;;;;;;;;;;6279939;22;20104;-69
2023/10/19 03:06:19;;;;;;;13.27;10.55;;;;;;;;;;6253127;22;20764;-70
2023/10/19 03:08:46;;;;;;;13.63;10.82;;;;;;;;;;6284438;22;20084;-70
2023/10/19 03:11:13;;;;;;;14.30;10.98;;;;;;;;;;6251988;22;20010;-69
2023/10/19 03:13:38;;;;;;;13.95;11.20;;;;;;;;;;6255584;22;20006;-70
2023/10/19 03:16:07;;;;;;;16.38;12.65;;;;;;;;;;6280649;22;19996;-70
2023/10/19 03:18:33;;;;;;;15.50;12.03;;;;;;;;;;6256297;22;20011;-70
2023/10/19 03:20:58;;;;;;;13.43;10.30;;;;;;;;;;6257287;22;20696;-70
2023/10/19 03:23:23;;;;;;;14.55;11.60;;;;;;;;;;6254289;22;19999;-68
2023/10/19 03:28:37;;;;;;;16.13;12.68;;;;;;;;;;6282334;22;20088;-68
2023/10/19 03:31:04;;;;;;;17.45;14.48;;;;;;;;;;6283620;22;20090;-68
2023/10/19 03:33:33;;;;;;;20.38;16.23;;;;;;;;;;6253924;22;20742;-68
2023/10/19 03:36:00;;;;;;;19.90;15.27;;;;;;;;;;6256115;22;20006;-68
2023/10/19 03:38:26;;;;;;;22.58;14.57;;;;;;;;;;6252677;22;20268;-68
2023/10/19 03:40:59;;;;;;;18.65;13.98;;;;;;;;;;6256449;22;20691;-67
2023/10/19 03:43:27;;;;;;;16.65;13.63;;;;;;;;;;6283130;22;20387;-71
2023/10/19 03:45:52;;;;;;;19.30;15.77;;;;;;;;;;6255532;22;20012;-68
2023/10/19 03:48:29;;;;;;;20.60;15.27;;;;;;;;;;6283571;22;20014;-74
2023/10/19 03:50:56;;;;;;;21.92;15.20;;;;;;;;;;6281738;22;19995;-69
2023/10/19 03:53:21;;;;;;;17.48;13.52;;;;;;;;;;6256431;22;20010;-69
2023/10/19 03:55:47;;;;;;;17.92;13.93;;;;;;;;;;6254783;22;20003;-69
2023/10/19 03:58:13;;;;;;;18.15;14.23;;;;;;;;;;6282845;22;20084;-68
2023/10/19 04:00:41;;;;;;;14.10;11.20;;;;;;;;;;6282600;22;20064;-68
2023/10/19 04:03:07;;;;;;;12.93;10.45;;;;;;;;;;6254849;22;20007;-68
2023/10/19 04:05:37;;;;;;;14.20;10.50;;;;;;;;;;6254858;22;20073;-68
2023/10/19 04:08:12;;;;;;;14.45;10.73;;;;;;;;;;6255225;22;19995;-68
2023/10/19 04:13:03;;;;;;;13.30;10.53;;;;;;;;;;6285155;22;20003;-68
2023/10/19 04:15:35;;;;;;;14.48;10.80;;;;;;;;;;6253099;22;20260;-68
2023/10/19 04:18:00;;;;;;;14.05;10.95;;;;;;;;;;6255727;22;20440;-68
2023/10/19 04:22:51;;;;;;;15.07;11.95;;;;;;;;;;6283848;22;20031;-68
2023/10/19 04:25:18;;;;;;;14.57;11.52;;;;;;;;;;6253618;22;19999;-68
2023/10/19 04:27:44;;;;;;;12.98;9.55;;;;;;;;;;6256301;22;20106;-68
2023/10/19 04:30:15;;;;;;;11.88;8.13;;;;;;;;;;6282605;22;20486;-68
2023/10/19 04:32:47;;;;;;;11.45;8.95;;;;;;;;;;6282810;22;20000;-68
2023/10/19 04:35:29;;;;;;;10.35;7.65;;;;;;;;;;6254475;22;20014;-65
2023/10/19 04:37:56;;;;;;;10.45;7.97;;;;;;;;;;6251967;22;20007;-67
2023/10/19 04:40:22;;;;;;;11.13;7.88;;;;;;;;;;6282870;22;20082;-67
2023/10/19 04:42:48;;;;;;;11.80;8.73;;;;;;;;;;6252563;22;20360;-67
2023/10/19 04:45:14;;;;;;;11.60;8.70;;;;;;;;;;6248992;22;20016;-68
2023/10/19 04:47:40;;;;;;;11.00;8.25;;;;;;;;;;6249633;22;19996;-68
2023/10/19 04:50:05;;;;;;;10.20;8.13;;;;;;;;;;6252027;22;20006;-68
2023/10/19 04:52:33;;;;;;;10.52;7.88;;;;;;;;;;6248036;22;20040;-68
2023/10/19 04:54:58;;;;;;;10.05;7.68;;;;;;;;;;6252071;22;20020;-67
2023/10/19 04:57:24;;;;;;;11.18;8.02;;;;;;;;;;6250137;22;20532;-67
2023/10/19 04:59:49;;;;;;;11.15;8.55;;;;;;;;;;6249633;22;20027;-68
2023/10/19 05:02:17;;;;;;;10.45;8.00;;;;;;;;;;6246123;22;19996;-67
2023/10/19 05:04:43;;;;;;;11.90;9.10;;;;;;;;;;6248317;22;19996;-68
2023/10/19 05:07:12;;;;;;;10.98;8.32;;;;;;;;;;6248527;22;20003;-67
2023/10/19 05:09:39;;;;;;;11.77;8.68;;;;;;;;;;6248859;22;20007;-68
2023/10/19 05:12:09;;;;;;;10.20;7.97;;;;;;;;;;6250709;22;20000;-67
2023/10/19 05:14:38;;;;;;;9.93;7.40;;;;;;;;;;6249385;22;20023;-68
2023/10/19 05:17:04;;;;;;;9.93;7.72;;;;;;;;;;6249925;22;19996;-67
2023/10/19 05:19:33;;;;;;;11.02;8.07;;;;;;;;;;6251677;22;20008;-66
2023/10/19 05:22:02;;;;;;;10.13;7.50;;;;;;;;;;6251180;22;20039;-69
2023/10/19 05:24:30;;;;;;;9.85;7.45;;;;;;;;;;6251040;22;20452;-69
2023/10/19 05:26:56;;;;;;;10.55;7.75;;;;;;;;;;6250031;22;20063;-68
2023/10/19 05:29:21;;;;;;;12.18;8.18;;;;;;;;;;6248876;22;20102;-69
2023/10/19 05:31:47;;;;;;;11.90;8.15;;;;;;;;;;6248692;22;20004;-68
2023/10/19 05:34:12;;;;;;;10.57;8.10;;;;;;;;;;6251936;22;20015;-69
2023/10/19 05:36:40;;;;;;;12.83;8.13;;;;;;;;;;6239822;22;20000;-68
2023/10/19 05:39:08;;;;;;;10.82;7.60;;;;;;;;;;6255260;22;20277;-68
2023/10/19 05:41:38;;;;;;;11.23;8.30;;;;;;;;;;6248891;22;20004;-69
2023/10/19 05:44:06;;;;;;;10.90;7.97;;;;;;;;;;6247967;22;20015;-69
2023/10/19 05:46:31;;;;;;;11.02;7.38;;;;;;;;;;6249801;22;20007;-69
2023/10/19 05:48:57;;;;;;;11.77;7.00;;;;;;;;;;6248724;22;20007;-70
2023/10/19 05:51:23;;;;;;;9.77;7.70;;;;;;;;;;6251411;22;19995;-70
2023/10/19 05:53:48;;;;;;;10.07;7.25;;;;;;;;;;6252304;22;19996;-69
2023/10/19 05:56:16;;;;;;;10.60;7.30;;;;;;;;;;6252596;22;20340;-68
2023/10/19 05:58:44;;;;;;;11.73;7.47;;;;;;;;;;6250360;22;20018;-68
2023/10/19 06:01:09;;;;;;;10.00;6.78;;;;;;;;;;6251751;22;20004;-70
2023/10/19 06:03:35;;;;;;;10.43;6.30;;;;;;;;;;6252297;22;20429;-68
2023/10/19 06:06:00;;;;;;;8.43;6.30;;;;;;;;;;6248248;22;20222;-68
2023/10/19 06:08:28;;;;;;;10.02;6.38;;;;;;;;;;6253160;22;20069;-69
2023/10/19 06:10:54;;;;;;;9.98;6.25;;;;;;;;;;6249908;22;19996;-69
2023/10/19 06:13:20;;;;;;;10.38;6.32;;;;;;;;;;6253042;22;20457;-69
2023/10/19 06:15:45;;;;;;;9.93;6.97;;;;;;;;;;6244601;22;20006;-68
2023/10/19 06:18:11;;;;;;;9.70;6.88;;;;;;;;;;6251095;22;20014;-69
2023/10/19 06:20:39;;;;;;;11.55;6.97;;;;;;;;;;6251181;22;20683;-67
2023/10/19 06:23:05;;;;;;;10.80;7.28;;;;;;;;;;6253448;22;19999;-68
2023/10/19 06:25:36;;;;;;;12.15;6.57;;;;;;;;;;6250481;22;20429;-68
2023/10/19 06:28:02;;;;;;;9.32;6.68;;;;;;;;;;6248731;22;20722;-67
2023/10/19 06:30:27;;;;;;;10.68;6.30;;;;;;;;;;6254076;22;20126;-68
2023/10/19 06:33:05;;;;;;;9.90;6.07;;;;;;;;;;6247222;22;20476;-67
2023/10/19 06:35:33;;;;;;;9.40;6.18;;;;;;;;;;6254613;22;20667;-68
2023/10/19 06:38:03;;;;;;;9.82;6.03;;;;;;;;;;6250904;22;19996;-68
2023/10/19 06:40:29;;;;;;;8.30;5.53;;;;;;;;;;6250171;22;20003;-68
2023/10/19 06:42:58;;;;;;;6.60;4.32;;;;;;;;;;6252898;22;19999;-68
2023/10/19 06:45:27;;;;;;;7.85;4.80;;;;;;;;;;6273545;22;20034;-68
2023/10/19 06:47:52;;;;;;;7.65;5.00;;;;;;;;;;6284370;22;19992;-68
2023/10/19 06:50:19;;;;;;;9.25;5.20;;;;;;;;;;6255350;22;20003;-67
2023/10/19 06:52:48;;;;;;;8.68;5.05;;;;;;;;;;6286306;22;19995;-67
2023/10/19 06:55:16;;;;;;;8.85;5.03;;;;;;;;;;6282645;22;19999;-67
2023/10/19 06:57:44;;;;;;;7.75;4.50;;;;;;;;;;6283341;22;20467;-67
2023/10/19 07:00:14;;;;;;;6.18;3.88;;;;;;;;;;6284300;22;20014;-68
2023/10/19 07:02:40;;;;;;;;;;;;;;;;;;6253392;22;19999;-68
2023/10/19 07:05:10;;;;;;;6.10;3.22;;;;;;;;;;6285074;22;19910;-67
2023/10/19 07:07:35;;;;;;;7.70;3.38;;;;;;;;;;6282970;22;19995;-68
2023/10/19 07:10:03;;;;;;;8.50;3.40;;;;;;;;;;6286058;22;20006;-67
2023/10/19 07:12:28;;;;;;;6.32;3.05;;;;;;;;;;6281830;22;19995;-67
2023/10/19 07:14:53;;;;;;;6.63;3.23;;;;;;;;;;6283673;22;20006;-68
2023/10/19 07:17:19;;;;;;;5.93;3.15;;;;;;;;;;6278642;22;20249;-68
2023/10/19 07:19:44;;;;;;;5.10;2.83;;;;;;;;;;6283603;22;20409;-68
2023/10/19 07:22:10;;;;;;;5.32;2.78;;;;;;;;;;6252582;22;20420;-69
2023/10/19 07:24:37;;;;;;;5.17;2.93;;;;;;;;;;6282755;22;20048;-67
2023/10/19 07:27:18;;;;;;;7.15;3.60;;;;;;;;;;6255126;22;20591;-68
2023/10/19 07:29:43;;;;;;;8.30;4.22;;;;;;;;;;6282457;22;19999;-69
2023/10/19 07:32:16;;;;;;;5.93;3.87;;;;;;;;;;6284220;22;20007;-68
2023/10/19 07:34:44;;;;;;;6.35;4.03;;;;;;;;;;6255672;22;20006;-68
2023/10/19 07:37:14;;;;;;;6.72;4.28;;;;;;;;;;6281349;22;20006;-68
2023/10/19 07:39:44;;;;;;;6.75;3.92;;;;;;;;;;6283428;22;20011;-65
2023/10/19 07:42:11;;;;;;;;;;;;;;;;;;6280803;22;19995;-65
2023/10/19 07:44:36;;;;;;;6.65;3.90;;;;;;;;;;6257052;22;19914;-65
2023/10/19 07:47:01;;;;;;;7.60;4.07;;;;;;;;;;6254029;22;19995;-66
2023/10/19 07:49:30;;;;;;;8.00;5.47;;;;;;;;;;6283257;22;20663;-65
2023/10/19 07:51:57;;;;;;;7.00;4.85;;;;;;;;;;6279342;22;20021;-66
2023/10/19 07:54:22;;;;;;;8.90;4.75;;;;;;;;;;6253198;22;20692;-65
2023/10/19 07:56:49;;;;;;;5.53;3.75;;;;;;;;;;6280055;22;20014;-67
2023/10/19 07:59:16;;;;;;;6.40;4.05;;;;;;;;;;6247316;22;20379;-66
2023/10/19 08:01:43;;;;;;;8.95;4.68;;;;;;;;;;6276760;22;19999;-66
2023/10/19 08:04:09;;;;;;;9.13;4.65;;;;;;;;;;6275018;22;20073;-66
2023/10/19 08:06:35;;;;;;;7.45;4.60;;;;;;;;;;6248809;22;20006;-65
2023/10/19 08:09:00;;;;;;;8.45;5.53;;;;;;;;;;6248013;22;20007;-65
2023/10/19 08:11:26;;;;;;;7.45;4.85;;;;;;;;;;6247302;22;20662;-66
2023/10/19 08:13:51;;;;;;;7.80;5.53;;;;;;;;;;6276313;22;19995;-65
2023/10/19 08:16:19;;;;;;;10.40;6.77;;;;;;;;;;6245135;22;20614;-65
2023/10/19 08:18:44;;;;;;;9.10;6.32;;;;;;;;;;6278245;22;20249;-65
2023/10/19 08:21:09;;;;;;;9.75;7.35;;;;;;;;;;6245980;22;20003;-65
2023/10/19 08:23:34;;;;;;;9.63;6.40;;;;;;;;;;6249751;22;20003;-64
2023/10/19 08:26:00;;;;;;;8.67;6.30;;;;;;;;;;6247443;22;20439;-65
2023/10/19 08:28:27;;;;;;;9.27;6.73;;;;;;;;;;6276773;22;20265;-65
2023/10/19 08:31:02;;;;;;;9.13;6.50;;;;;;;;;;6274068;22;20209;-66
2023/10/19 08:33:27;;;;;;;8.73;6.20;;;;;;;;;;6274868;22;20027;-66
2023/10/19 08:36:02;;;;;;;9.63;6.35;;;;;;;;;;6275735;22;20130;-65
2023/10/19 08:38:28;;;;;;;9.15;5.60;;;;;;;;;;6271827;22;20096;-66
2023/10/19 08:40:55;;;;;;;7.53;5.13;;;;;;;;;;6250769;22;20003;-67
2023/10/19 08:43:21;;;;;;;8.48;5.60;;;;;;;;;;6246378;22;19995;-67
2023/10/19 08:45:47;;;;;;;7.55;5.43;;;;;;;;;;6275333;22;20076;-65
2023/10/19 08:48:12;;;;;;;9.00;5.60;;;;;;;;;;6245497;22;20250;-66
2023/10/19 08:50:43;;;;;;;7.03;5.10;;;;;;;;;;6275607;22;19995;-65
2023/10/19 08:53:09;;;;;;;7.35;5.13;;;;;;;;;;6274187;22;19999;-67
2023/10/19 08:55:34;;;;;;;8.38;5.53;;;;;;;;;;6275098;22;20746;-66
2023/10/19 08:58:00;;;;;;;8.38;5.57;;;;;;;;;;6273949;22;19999;-66
2023/10/19 09:00:27;;;;;;;7.50;5.38;;;;;;;;;;6248658;22;20035;-66
2023/10/19 09:02:56;;;;;;;7.55;5.18;;;;;;;;;;6277644;22;19995;-65
2023/10/19 09:05:27;;;;;;;7.35;5.30;;;;;;;;;;6274437;22;19995;-63
2023/10/19 09:07:54;;;;;;;7.13;4.97;;;;;;;;;;6249233;22;20495;-66
2023/10/19 09:10:26;;;;;;;7.22;4.78;;;;;;;;;;6274039;22;20037;-65
2023/10/19 09:13:10;;;;;;;6.93;4.60;;;;;;;;;;6250797;22;20003;-65
2023/10/19 09:15:41;;;;;;;8.35;4.45;;;;;;;;;;6248483;22;20408;-66
2023/10/19 09:18:16;;;;;;;5.50;3.30;;;;;;;;;;6277554;22;20396;-67
2023/10/19 09:23:47;;;;;;;5.95;3.85;;;;;;;;;;6178338;23;20563;-67
2023/10/19 09:26:15;;;;;;;6.80;4.65;;;;;;;;;;6258190;22;20023;-66
2023/10/19 09:28:42;;;;;;;7.00;4.80;;;;;;;;;;6276579;22;20006;-65
2023/10/19 09:31:11;;;;;;;7.82;4.72;;;;;;;;;;6249628;22;20098;-65
2023/10/19 09:33:37;;;;;;;5.85;3.63;;;;;;;;;;6276318;22;20011;-66
2023/10/19 09:36:04;;;;;;;6.63;3.90;;;;;;;;;;6277697;22;20328;-66
2023/10/19 09:38:29;;;;;;;5.57;3.60;;;;;;;;;;6277396;22;20785;-65
2023/10/19 09:40:55;;;;;;;5.80;3.80;;;;;;;;;;6275313;22;20001;-65
2023/10/19 09:43:42;;;;;;;6.57;4.00;;;;;;;;;;6249796;22;21073;-63
2023/10/19 09:46:08;;;;;;;6.30;3.50;;;;;;;;;;6246082;22;20023;-64
2023/10/19 09:48:39;;;;;;;5.43;3.55;;;;;;;;;;6249972;22;20064;-63
2023/10/19 09:51:05;;;;;;;6.25;3.35;;;;;;;;;;6247513;22;20424;-63
2023/10/19 09:53:36;;;;;;;5.82;3.70;;;;;;;;;;6249531;22;20003;-66
2023/10/19 09:56:06;;;;;;;6.63;3.55;;;;;;;;;;6274777;22;19999;-66
2023/10/19 09:58:50;;;;;;;6.80;4.13;;;;;;;;;;6272989;22;20007;-64
2023/10/19 10:01:16;;;;;;;7.10;4.18;;;;;;;;;;6249935;22;20010;-67
2023/10/19 10:03:47;;;;;;;7.07;4.63;;;;;;;;;;6248123;22;19999;-65
2023/10/19 10:06:14;;;;;;;5.88;2.47;;;;;;;;;;6248292;22;20005;-66
2023/10/19 10:08:40;;;;;;;6.63;2.95;;;;;;;;;;6247790;22;20034;-66
2023/10/19 10:11:22;;;;;;;6.03;3.40;;;;;;;;;;6272870;22;20026;-66
2023/10/19 10:13:51;;;;;;;6.32;3.38;;;;;;;;;;6277689;22;20011;-65
2023/10/19 10:16:27;;;;;;;5.35;2.42;;;;;;;;;;6247597;22;20517;-65
2023/10/19 10:18:59;;;;;;;4.70;1.20;;;;;;;;;;6277831;22;20035;-66
2023/10/19 10:21:28;;;;;;;4.15;1.20;;;;;;;;;;6275646;22;19999;-63
2023/10/19 10:23:57;;;;;;;3.88;1.02;;;;;;;;;;6277480;22;19995;-64
2023/10/19 10:26:26;;;;;;;3.47;1.27;;;;;;;;;;6278454;22;20499;-66
2023/10/19 10:29:14;;;;;;;2.83;1.00;;;;;;;;;;6246566;22;20238;-67
2023/10/19 10:31:43;;;;;;;2.38;0.85;;;;;;;;;;6278618;22;20005;-66
2023/10/19 10:34:09;;;;;;;3.28;1.20;;;;;;;;;;6277143;22;20027;-66
2023/10/19 10:36:56;;;;;;;3.55;1.70;;;;;;;;;;6277715;22;20885;-67
2023/10/19 10:39:24;;;;;;;3.10;1.00;;;;;;;;;;6277293;22;20003;-67
2023/10/19 10:41:54;;;;;;;3.55;1.50;;;;;;;;;;6275846;22;20001;-67
2023/10/19 10:44:20;;;;;;;3.95;1.63;;;;;;;;;;6248245;22;20015;-67
2023/10/19 10:46:47;;;;;;;5.72;1.40;;;;;;;;;;6275129;22;20052;-66
2023/10/19 10:49:15;;;;;;;3.38;1.20;;;;;;;;;;6275952;22;20425;-66
2023/10/19 10:51:41;;;;;;;4.97;2.40;;;;;;;;;;6277048;22;19995;-66
2023/10/19 10:54:06;;;;;;;4.00;1.70;;;;;;;;;;6273508;22;20006;-66
2023/10/19 10:56:41;;;;;;;3.23;1.27;;;;;;;;;;6276532;22;19999;-64
2023/10/19 10:59:13;;;;;;;4.65;1.20;;;;;;;;;;6245028;22;20727;-66
2023/10/19 11:01:38;;;;;;;2.25;0.90;;;;;;;;;;6271923;22;19991;-66
2023/10/19 11:04:15;;;;;;;2.87;0.80;;;;;;;;;;6273283;22;20002;-67
2023/10/19 11:06:47;;;;;;;2.33;0.90;;;;;;;;;;6269877;22;20221;-65
2023/10/19 11:09:14;;;;;;;3.03;0.95;;;;;;;;;;6274428;22;19993;-66
2023/10/19 11:11:40;;;;;;;2.58;0.95;;;;;;;;;;6262500;22;19999;-67
2023/10/19 11:14:08;;;;;;;2.78;0.98;;;;;;;;;;6273609;22;20684;-66
2023/10/19 11:16:34;;;;;;;3.50;1.42;;;;;;;;;;6272968;22;20022;-65
2023/10/19 11:18:59;;;;;;;5.63;2.13;;;;;;;;;;6276194;22;20111;-65
2023/10/19 11:21:24;;;;;;;2.95;1.00;;;;;;;;;;6273492;22;20248;-65
2023/10/19 11:23:52;;;;;;;2.17;0.83;;;;;;;;;;6277030;22;20006;-65
2023/10/19 11:26:20;;;;;;;1.27;0.55;;;;;;;;;;6273397;22;20293;-65
2023/10/19 11:28:53;;;;;;;3.38;0.80;;;;;;;;;;6275469;22;19999;-62
2023/10/19 11:31:21;;;;;;;1.88;0.70;;;;;;;;;;6249114;22;20009;-65
2023/10/19 11:33:50;;;;;;;2.50;0.80;;;;;;;;;;6277357;22;20102;-65
2023/10/19 11:36:18;;;;;;;1.77;0.73;;;;;;;;;;6273438;22;20026;-64
2023/10/19 11:38:49;;;;;;;1.98;0.70;;;;;;;;;;6274120;22;20025;-65
2023/10/19 11:41:15;;;;;;;2.25;0.73;;;;;;;;;;6248734;22;20256;-66
2023/10/19 11:43:43;;;;;;;1.88;0.70;;;;;;;;;;6278606;22;19995;-65
2023/10/19 11:46:09;;;;;;;2.08;0.75;;;;;;;;;;6280339;22;20023;-66
2023/10/19 11:48:39;;;;;;;2.70;0.70;;;;;;;;;;6256201;22;20057;-64
2023/10/19 11:51:07;;;;;;;2.22;0.90;;;;;;;;;;6278742;22;20049;-65
2023/10/19 11:53:36;;;;;;;1.40;0.60;;;;;;;;;;6283096;22;20008;-66
2023/10/19 11:56:06;;;;;;;1.73;0.65;;;;;;;;;;6252106;22;20029;-64
2023/10/19 11:58:37;;;;;;;1.88;0.80;;;;;;;;;;6281748;22;19999;-65
2023/10/19 12:01:05;;;;;;;2.85;0.80;;;;;;;;;;6280338;22;20003;-63
2023/10/19 12:03:35;;;;;;;3.10;1.10;;;;;;;;;;6254371;22;20060;-65
2023/10/19 12:06:04;;;;;;;3.75;1.20;;;;;;;;;;6279861;22;20576;-65
2023/10/19 12:08:29;;;;;;;2.90;1.10;;;;;;;;;;6252121;22;20011;-65
2023/10/19 12:10:54;;;;;;;2.70;1.00;;;;;;;;;;6283076;22;20053;-64
2023/10/19 12:13:19;;;;;;;2.88;1.00;;;;;;;;;;6281114;22;20210;-64
2023/10/19 12:15:51;;;;;;;1.97;0.77;;;;;;;;;;6253979;22;20076;-63
2023/10/19 12:18:17;;;;;;;1.90;0.70;;;;;;;;;;6251340;22;20731;-65
2023/10/19 12:20:45;;;;;;;3.80;0.80;;;;;;;;;;6282615;22;20079;-63
2023/10/19 12:23:13;;;;;;;2.20;0.80;;;;;;;;;;6282528;22;20222;-64
2023/10/19 12:25:38;;;;;;;1.90;0.70;;;;;;;;;;6279673;22;20030;-64
2023/10/19 12:28:04;;;;;;;2.77;1.00;;;;;;;;;;6282323;22;20436;-65
2023/10/19 12:30:35;;;;;;;3.40;1.10;;;;;;;;;;6279849;22;20218;-64
2023/10/19 12:33:07;;;;;;;3.97;1.13;;;;;;;;;;6279430;22;19996;-65
2023/10/19 12:35:45;;;;;;;2.65;0.93;;;;;;;;;;6279075;22;19996;-64
2023/10/19 12:38:16;;;;;;;3.97;1.23;;;;;;;;;;6279333;22;20031;-64
2023/10/19 12:40:46;;;;;;;3.78;1.30;;;;;;;;;;6251229;22;20076;-64
2023/10/19 12:43:12;;;;;;;3.75;1.20;;;;;;;;;;6252911;22;20895;-64
2023/10/19 12:45:37;;;;;;;4.00;1.13;;;;;;;;;;6282043;22;20011;-65
2023/10/19 12:48:04;;;;;;;3.97;1.20;;;;;;;;;;6282951;22;19999;-65
2023/10/19 12:50:30;;;;;;;3.53;1.10;;;;;;;;;;6282237;22;19996;-64
2023/10/19 12:52:55;;;;;;;4.18;1.40;;;;;;;;;;6257266;22;20007;-65
2023/10/19 12:55:21;;;;;;;4.05;1.63;;;;;;;;;;6253757;22;20416;-64
2023/10/19 12:57:46;;;;;;;3.87;1.53;;;;;;;;;;6254171;22;20006;-64
2023/10/19 13:00:24;;;;;;;3.70;1.20;;;;;;;;;;6281735;22;20307;-64
2023/10/19 13:02:50;;;;;;;4.50;1.30;;;;;;;;;;6282355;22;20777;-64
2023/10/19 13:05:18;;;;;;;3.50;1.20;;;;;;;;;;6284259;22;20089;-64
2023/10/19 13:07:43;;;;;;;4.05;1.50;;;;;;;;;;6282851;22;20726;-64
2023/10/19 13:10:08;;;;;;;4.47;1.63;;;;;;;;;;6254669;22;20007;-64
2023/10/19 13:12:34;;;;;;;3.13;1.00;;;;;;;;;;6281963;22;19999;-65
2023/10/19 13:14:59;;;;;;;2.47;0.83;;;;;;;;;;6255493;22;20086;-64
2023/10/19 13:17:24;;;;;;;1.83;0.70;;;;;;;;;;6279395;22;20764;-64
2023/10/19 13:19:56;;;;;;;5.22;1.30;;;;;;;;;;6284223;22;20788;-64
2023/10/19 13:22:24;;;;;;;3.13;1.10;;;;;;;;;;6282236;22;19999;-64
2023/10/19 13:24:50;;;;;;;2.95;0.70;;;;;;;;;;6282471;22;20026;-64
2023/10/19 13:27:17;;;;;;;2.60;0.77;;;;;;;;;;6280482;22;20033;-62
2023/10/19 13:29:43;;;;;;;2.97;0.70;;;;;;;;;;6282463;22;19999;-64
2023/10/19 13:32:11;;;;;;;2.20;0.70;;;;;;;;;;6285850;22;20006;-64
2023/10/19 13:34:40;;;;;;;2.65;0.80;;;;;;;;;;6280763;22;19995;-64
2023/10/19 13:37:07;;;;;;;1.83;0.70;;;;;;;;;;6284611;22;20018;-64
2023/10/19 13:39:33;;;;;;;1.25;0.50;;;;;;;;;;6252897;22;20113;-63
2023/10/19 13:41:58;;;;;;;2.03;0.60;;;;;;;;;;6283715;22;19999;-63
2023/10/19 13:44:25;;;;;;;1.60;0.60;;;;;;;;;;6282530;22;20090;-64
2023/10/19 13:46:52;;;;;;;2.25;0.60;;;;;;;;;;6253126;22;20242;-64
2023/10/19 13:49:18;;;;;;;2.28;0.65;;;;;;;;;;6256008;22;20042;-64
2023/10/19 13:51:44;;;;;;;2.17;0.80;;;;;;;;;;6282773;22;19996;-65
2023/10/19 13:54:09;;;;;;;1.97;0.70;;;;;;;;;;6256938;22;19999;-65
2023/10/19 13:56:35;;;;;;;2.60;0.93;;;;;;;;;;6279955;22;20799;-64
2023/10/19 13:59:00;;;;;;;2.05;0.70;;;;;;;;;;6285054;22;20227;-64
2023/10/19 14:01:28;;;;;;;2.07;0.70;;;;;;;;;;6280133;22;20373;-64
2023/10/19 14:03:56;;;;;;;1.83;0.60;;;;;;;;;;6284545;22;20209;-64
2023/10/19 14:06:22;;;;;;;2.47;0.90;;;;;;;;;;6252840;22;20702;-64
2023/10/19 14:08:47;;;;;;;3.08;0.90;;;;;;;;;;6255443;22;20006;-64
2023/10/19 14:11:12;;;;;;;2.25;0.80;;;;;;;;;;6279781;22;20003;-64
2023/10/19 14:13:40;;;;;;;2.70;0.83;;;;;;;;;;6282132;22;20074;-64
2023/10/19 14:16:07;;;;;;;2.45;0.80;;;;;;;;;;6283366;22;20214;-64
2023/10/19 14:18:35;;;;;;;2.42;0.82;;;;;;;;;;6254422;22;20003;-64
2023/10/19 14:21:10;;;;;;;2.95;0.85;;;;;;;;;;6281337;22;20728;-62
2023/10/19 14:23:38;;;;;;;3.90;1.23;;;;;;;;;;6278598;22;20648;-63
2023/10/19 14:26:06;;;;;;;3.10;1.20;;;;;;;;;;6279139;22;20081;-64
2023/10/19 14:28:31;;;;;;;3.55;1.40;;;;;;;;;;6283758;22;21005;-65
2023/10/19 14:30:57;;;;;;;4.50;1.80;;;;;;;;;;6255656;22;19999;-66
2023/10/19 14:33:22;;;;;;;5.55;2.70;;;;;;;;;;6285467;22;20004;-66
2023/10/19 14:35:47;;;;;;;5.80;2.63;;;;;;;;;;6255930;22;20010;-65
2023/10/19 14:38:15;;;;;;;4.97;2.28;;;;;;;;;;6258413;22;20550;-66
2023/10/19 14:40:48;;;;;;;5.28;2.03;;;;;;;;;;6280802;22;20003;-66
2023/10/19 14:43:15;;;;;;;5.00;1.90;;;;;;;;;;6284208;22;20066;-65
2023/10/19 14:45:41;;;;;;;3.90;1.60;;;;;;;;;;6284082;22;20042;-66
2023/10/19 14:48:10;;;;;;;3.47;1.27;;;;;;;;;;6255616;22;20027;-65
2023/10/19 14:50:35;;;;;;;4.25;1.40;;;;;;;;;;6284604;22;20072;-67
2023/10/19 14:53:00;;;;;;;4.63;1.98;;;;;;;;;;6254740;22;20003;-64
2023/10/19 14:55:26;;;;;;;4.13;2.07;;;;;;;;;;6284020;22;20006;-64
2023/10/19 14:57:55;;;;;;;4.20;2.05;;;;;;;;;;6252080;22;20884;-65
2023/10/19 15:00:43;;;;;;;4.50;1.97;;;;;;;;;;6282673;22;20084;-65
2023/10/19 15:03:09;;;;;;;4.63;1.80;;;;;;;;;;6280995;22;20006;-66
2023/10/19 15:05:37;;;;;;;3.78;1.75;;;;;;;;;;6281616;22;20664;-65